createdAt,value
2019-01-02T00:04:18.697Z,2.20
2019-01-02T00:09:34.081Z,2.27
2019-01-02T00:14:50.544Z,2.87
2019-01-02T00:20:06.073Z,2.67
2019-01-02T00:25:21.345Z,2.37
2019-01-02T00:30:37.068Z,1.80
2019-01-02T00:35:53.420Z,2.17
2019-01-02T00:41:08.700Z,2.63
2019-01-02T00:46:24.418Z,2.13
2019-01-02T00:51:40.137Z,2.87
2019-01-02T00:56:55.977Z,2.87
2019-01-02T01:02:11.412Z,2.40
2019-01-02T01:07:27.463Z,2.93
2019-01-02T01:12:43.195Z,2.30
2019-01-02T01:17:58.909Z,2.30
2019-01-02T01:23:14.340Z,2.07
2019-01-02T01:28:30.924Z,2.30
2019-01-02T01:33:46.100Z,2.03
2019-01-02T01:39:02.558Z,2.63
2019-01-02T01:44:18.546Z,2.60
2019-01-02T01:49:34.017Z,2.83
2019-01-02T01:54:49.290Z,2.07
2019-01-02T02:00:05.261Z,2.40
2019-01-02T02:05:21.172Z,3.20
2019-01-02T02:10:36.897Z,2.07
2019-01-02T02:15:53.189Z,2.40
2019-01-02T02:21:08.622Z,2.27
2019-01-02T02:26:24.637Z,2.00
2019-01-02T02:31:40.391Z,2.60
2019-01-02T02:36:56.449Z,2.53
2019-01-02T02:42:12.841Z,2.20
2019-01-02T02:47:29.030Z,2.40
2019-01-02T02:52:44.961Z,2.20
2019-01-02T02:58:01.069Z,3.17
2019-01-02T03:03:17.146Z,2.27
2019-01-02T03:08:32.457Z,2.53
2019-01-02T03:13:48.514Z,2.47
2019-01-02T03:19:04.925Z,2.47
2019-01-02T03:24:20.577Z,2.50
2019-01-02T03:29:36.285Z,3.13
2019-01-02T03:34:52.801Z,2.73
2019-01-02T03:40:09.074Z,2.90
2019-01-02T03:45:24.648Z,3.17
2019-01-02T03:50:40.203Z,3.20
2019-01-02T03:55:56.046Z,2.83
2019-01-02T04:01:11.586Z,2.20
2019-01-02T04:06:27.197Z,3.97
2019-01-02T04:11:43.281Z,3.07
2019-01-02T04:16:58.861Z,3.27
2019-01-02T04:22:14.098Z,3.00
2019-01-02T04:27:29.328Z,2.60
2019-01-02T04:32:45.342Z,2.77
2019-01-02T04:38:00.916Z,3.27
2019-01-02T04:43:16.422Z,3.10
2019-01-02T04:48:32.082Z,2.97
2019-01-02T04:53:47.773Z,3.23
2019-01-02T04:59:03.510Z,3.33
2019-01-02T05:04:18.785Z,3.10
2019-01-02T05:09:34.433Z,2.57
2019-01-02T05:14:50.274Z,2.57
2019-01-02T05:20:05.903Z,1.63
2019-01-02T05:25:21.385Z,2.30
2019-01-02T05:30:36.783Z,2.20
2019-01-02T05:35:52.254Z,2.20
2019-01-02T05:41:08.139Z,2.67
2019-01-02T05:46:23.896Z,3.23
2019-01-02T05:51:39.454Z,2.50
2019-01-02T05:56:54.813Z,3.20
2019-01-02T06:02:10.441Z,2.60
2019-01-02T06:07:26.314Z,3.37
2019-01-02T06:12:41.926Z,3.13
2019-01-02T06:17:58.019Z,3.37
2019-01-02T06:23:13.974Z,3.03
2019-01-02T06:28:29.327Z,3.00
2019-01-02T06:33:44.682Z,3.17
2019-01-02T06:39:00.145Z,2.63
2019-01-02T06:44:16.281Z,2.83
2019-01-02T06:49:31.553Z,3.20
2019-01-02T06:54:46.858Z,2.50
2019-01-02T07:00:02.658Z,3.73
2019-01-02T07:05:18.770Z,2.30
2019-01-02T07:10:34.956Z,2.93
2019-01-02T07:15:51.081Z,2.93
2019-01-02T07:21:06.489Z,2.97
2019-01-02T07:26:22.573Z,2.30
2019-01-02T07:31:38.129Z,2.80
2019-01-02T07:36:54.072Z,2.10
2019-01-02T07:42:09.342Z,2.90
2019-01-02T07:47:53.177Z,3.43
2019-01-02T07:53:35.257Z,2.60
2019-01-02T07:59:18.809Z,2.00
2019-01-02T08:05:02.886Z,2.83
2019-01-02T08:10:44.965Z,2.93
2019-01-02T08:16:29.167Z,2.73
2019-01-02T08:21:46.331Z,2.70
2019-01-02T08:27:01.961Z,3.53
2019-01-02T08:32:18.143Z,2.07
2019-01-02T08:37:34.003Z,2.50
2019-01-02T08:42:49.419Z,2.87
2019-01-02T08:48:05.166Z,1.87
2019-01-02T08:53:20.485Z,2.37
2019-01-02T08:58:37.854Z,1.60
2019-01-02T09:03:53.135Z,3.63
2019-01-02T09:09:10.116Z,2.63
2019-01-02T09:14:26.253Z,2.30
2019-01-02T09:19:41.965Z,2.23
2019-01-02T09:24:57.559Z,2.70
2019-01-02T09:30:13.604Z,2.67
2019-01-02T09:35:29.425Z,2.40
2019-01-02T09:40:47.260Z,2.10
2019-01-02T09:46:02.806Z,3.70
2019-01-02T09:51:18.761Z,1.97
2019-01-02T09:56:34.310Z,1.77
2019-01-02T10:01:50.055Z,2.10
2019-01-02T10:07:05.558Z,2.30
2019-01-02T10:12:21.033Z,1.77
2019-01-02T10:17:36.730Z,2.80
2019-01-02T10:22:52.239Z,2.33
2019-01-02T10:28:08.166Z,3.40
2019-01-02T10:33:24.206Z,3.63
2019-01-02T10:38:39.669Z,2.77
2019-01-02T10:43:58.677Z,1.93
2019-01-02T10:49:14.333Z,2.67
2019-01-02T10:54:29.857Z,2.63
2019-01-02T10:59:46.362Z,2.77
2019-01-02T11:05:02.156Z,2.73
2019-01-02T11:10:17.420Z,2.60
2019-01-02T11:15:32.997Z,2.60
2019-01-02T11:20:48.689Z,2.17
2019-01-02T11:26:04.672Z,1.87
2019-01-02T11:31:20.099Z,2.67
2019-01-02T11:36:36.214Z,2.87
2019-01-02T11:41:52.614Z,2.73
2019-01-02T11:47:08.192Z,2.50
2019-01-02T11:52:23.682Z,2.30
2019-01-02T11:57:39.353Z,2.20
2019-01-02T12:02:54.659Z,1.80
2019-01-02T12:08:10.202Z,2.73
2019-01-02T12:13:25.835Z,2.00
2019-01-02T12:18:41.710Z,1.87
2019-01-02T12:23:57.283Z,1.50
2019-01-02T12:29:13.259Z,2.13
2019-01-02T12:34:28.538Z,1.47
2019-01-02T12:39:46.940Z,1.37
2019-01-02T12:45:02.945Z,1.50
2019-01-02T12:50:18.161Z,1.70
2019-01-02T12:55:34.193Z,1.40
2019-01-02T13:00:49.990Z,0.90
2019-01-02T13:06:05.338Z,1.17
2019-01-02T13:11:20.769Z,1.23
2019-01-02T13:16:36.459Z,1.53
2019-01-02T13:21:52.053Z,1.20
2019-01-02T13:27:07.686Z,1.10
2019-01-02T13:32:23.466Z,0.73
2019-01-02T13:37:39.049Z,0.73
2019-01-02T13:42:54.513Z,0.60
2019-01-02T13:48:37.993Z,0.60
2019-01-02T13:54:07.988Z,0.63
2019-01-02T13:59:31.000Z,0.70
2019-01-02T14:04:53.762Z,0.93
2019-01-02T14:10:16.770Z,0.77
2019-01-02T14:15:39.773Z,0.60
2019-01-02T14:21:02.793Z,0.67
2019-01-02T14:26:18.834Z,0.53
2019-01-02T14:31:38.626Z,0.83
2019-01-02T14:36:52.287Z,1.63
2019-01-02T14:42:07.572Z,0.63
2019-01-02T14:47:23.218Z,0.60
2019-01-02T14:52:43.218Z,0.60
2019-01-02T14:57:56.724Z,0.73
2019-01-02T15:03:12.586Z,1.00
2019-01-02T15:08:28.068Z,0.67
2019-01-02T15:13:44.224Z,1.00
2019-01-02T15:18:59.485Z,0.90
2019-01-02T15:24:15.369Z,0.83
2019-01-02T15:29:31.175Z,0.87
2019-01-02T15:34:46.709Z,0.80
2019-01-02T15:40:02.446Z,0.80
2019-01-02T15:45:18.566Z,0.77
2019-01-02T15:50:33.858Z,0.77
2019-01-02T15:55:49.694Z,0.70
2019-01-02T16:01:05.353Z,0.80
2019-01-02T16:06:21.080Z,0.60
2019-01-02T16:11:37.955Z,0.80
2019-01-02T16:16:53.900Z,0.70
2019-01-02T16:22:09.301Z,0.70
2019-01-02T16:27:24.545Z,0.57
2019-01-02T16:32:39.925Z,0.80
2019-01-02T16:37:55.580Z,0.80
2019-01-02T16:43:11.173Z,0.93
2019-01-02T16:48:26.799Z,1.00
2019-01-02T16:53:42.117Z,1.63
2019-01-02T16:58:57.845Z,1.70
2019-01-02T17:04:13.799Z,2.23
2019-01-02T17:09:29.593Z,1.37
2019-01-02T17:14:45.837Z,1.27
2019-01-02T17:20:01.438Z,1.67
2019-01-02T17:25:17.048Z,1.30
2019-01-02T17:30:32.397Z,1.17
2019-01-02T17:35:47.757Z,1.50
2019-01-02T17:41:03.322Z,1.20
2019-01-02T17:46:19.305Z,1.40
2019-01-02T17:51:34.725Z,1.50
2019-01-02T17:56:50.071Z,1.73
2019-01-02T18:02:05.578Z,2.27
2019-01-02T18:07:21.259Z,2.00
2019-01-02T18:12:37.136Z,2.27
2019-01-02T18:17:52.832Z,2.10
2019-01-02T18:23:08.044Z,2.13
2019-01-02T18:28:24.349Z,2.20
2019-01-02T18:33:39.918Z,1.93
2019-01-02T18:38:55.434Z,2.87
2019-01-02T18:44:10.854Z,3.10
2019-01-02T18:49:14.525Z,2.30
2019-01-02T18:54:37.284Z,2.13
2019-01-02T19:00:05.874Z,2.37
2019-01-02T19:05:24.779Z,2.70
2019-01-02T19:10:47.549Z,3.03
2019-01-02T19:16:10.594Z,3.67
2019-01-02T19:21:33.369Z,2.87
2019-01-02T19:32:26.436Z,4.93
2019-01-02T19:37:49.197Z,4.90
2019-01-02T19:43:12.205Z,4.90
2019-01-02T19:48:35.179Z,4.87
2019-01-02T19:53:58.177Z,4.90
2019-01-02T19:59:20.628Z,5.00
2019-01-02T20:04:43.641Z,5.73
2019-01-02T20:10:27.393Z,5.33
2019-01-02T20:15:51.012Z,5.13
2019-01-02T20:21:14.126Z,5.53
2019-01-02T20:26:31.745Z,5.93
2019-01-02T20:31:47.505Z,5.27
2019-01-02T20:37:03.358Z,5.47
2019-01-02T20:42:19.332Z,4.40
2019-01-02T20:47:39.116Z,5.87
2019-01-02T20:52:55.071Z,5.10
2019-01-02T20:58:10.760Z,4.77
2019-01-02T21:03:26.458Z,4.80
2019-01-02T21:08:41.725Z,4.63
2019-01-02T21:13:57.870Z,4.23
2019-01-02T21:19:13.836Z,5.37
2019-01-02T21:24:29.526Z,5.03
2019-01-02T21:29:44.851Z,5.13
2019-01-02T21:35:01.084Z,3.80
2019-01-02T21:40:17.376Z,5.10
2019-01-02T21:45:34.034Z,4.37
2019-01-02T21:50:49.671Z,4.50
2019-01-02T21:55:53.524Z,3.73
2019-01-02T22:01:16.345Z,4.40
2019-01-02T22:06:51.210Z,4.63
2019-01-02T22:12:03.588Z,4.20
2019-01-02T22:17:27.172Z,4.53
2019-01-02T22:22:42.717Z,4.50
2019-01-02T22:27:58.265Z,4.07
2019-01-02T22:33:14.138Z,3.87
2019-01-02T22:38:29.725Z,4.07
2019-01-02T22:43:45.299Z,3.73
2019-01-02T22:49:00.935Z,3.67
2019-01-02T22:54:16.640Z,4.10
2019-01-02T22:59:32.690Z,4.50
2019-01-02T23:05:07.363Z,4.10
2019-01-02T23:10:27.815Z,4.33
2019-01-02T23:27:09.779Z,5.57
2019-01-02T23:32:51.981Z,5.23
2019-01-02T23:38:34.165Z,5.07
2019-01-02T23:49:50.057Z,4.70
2019-01-02T23:55:32.065Z,4.97
